createdAt,value
2019-01-18T00:02:00.166Z,13.03
2019-01-18T00:04:45.382Z,11.43
2019-01-18T00:07:30.100Z,12.23
2019-01-18T00:10:15.228Z,10.17
2019-01-18T00:13:00.076Z,10.73
2019-01-18T00:15:45.188Z,11.23
2019-01-18T00:18:30.023Z,12.07
2019-01-18T00:21:14.888Z,12.10
2019-01-18T00:24:00.052Z,11.67
2019-01-18T00:26:45.407Z,12.03
2019-01-18T00:29:30.632Z,14.63
2019-01-18T00:32:15.773Z,14.30
2019-01-18T00:35:00.742Z,15.63
2019-01-18T00:37:46.481Z,12.27
2019-01-18T00:40:31.531Z,15.23
2019-01-18T00:43:16.629Z,13.83
2019-01-18T00:46:01.309Z,14.17
2019-01-18T00:48:47.381Z,13.83
2019-01-18T00:51:32.736Z,14.43
2019-01-18T00:54:18.101Z,15.13
2019-01-18T00:57:03.518Z,15.47
2019-01-18T00:59:48.712Z,16.27
2019-01-18T01:02:33.378Z,15.20
2019-01-18T01:05:18.621Z,16.73
2019-01-18T01:08:03.514Z,15.33
2019-01-18T01:10:48.592Z,16.47
2019-01-18T01:13:33.958Z,18.57
2019-01-18T01:16:18.758Z,17.30
2019-01-18T01:19:04.140Z,16.87
2019-01-18T01:21:49.230Z,21.73
2019-01-18T01:24:34.462Z,18.33
2019-01-18T01:27:19.658Z,15.97
2019-01-18T01:30:11.198Z,17.63
2019-01-18T01:32:56.325Z,16.67
2019-01-18T01:35:41.691Z,16.10
2019-01-18T01:38:26.921Z,14.80
2019-01-18T01:41:11.635Z,14.77
2019-01-18T01:43:56.841Z,15.07
2019-01-18T01:46:42.085Z,15.70
2019-01-18T01:49:27.658Z,13.87
2019-01-18T01:52:12.432Z,14.83
2019-01-18T01:54:57.786Z,16.33
2019-01-18T01:57:43.001Z,13.60
2019-01-18T02:00:27.716Z,14.20
2019-01-18T02:03:12.414Z,11.07
2019-01-18T02:05:57.483Z,13.80
2019-01-18T02:08:42.142Z,14.07
2019-01-18T02:11:27.479Z,14.07
2019-01-18T02:14:12.720Z,13.20
2019-01-18T02:16:57.841Z,15.57
2019-01-18T02:19:42.834Z,15.20
2019-01-18T02:22:28.090Z,14.50
2019-01-18T02:25:12.998Z,15.57
2019-01-18T02:27:58.259Z,12.40
2019-01-18T02:30:43.724Z,10.50
2019-01-18T02:33:28.515Z,7.50
2019-01-18T02:36:13.292Z,6.77
2019-01-18T02:38:58.747Z,6.83
2019-01-18T02:41:43.430Z,7.10
2019-01-18T02:44:28.251Z,7.57
2019-01-18T02:47:13.039Z,7.07
2019-01-18T02:49:57.753Z,8.67
2019-01-18T02:52:42.378Z,9.00
2019-01-18T02:55:29.026Z,9.53
2019-01-18T02:58:14.609Z,10.47
2019-01-18T03:00:59.892Z,7.80
2019-01-18T03:03:44.884Z,7.47
2019-01-18T03:06:29.633Z,7.47
2019-01-18T03:09:14.789Z,8.07
2019-01-18T03:11:59.959Z,7.97
2019-01-18T03:14:44.674Z,7.23
2019-01-18T03:17:29.990Z,7.80
2019-01-18T03:20:17.030Z,7.93
2019-01-18T03:23:02.073Z,7.90
2019-01-18T03:25:47.186Z,6.77
2019-01-18T03:28:31.877Z,7.27
2019-01-18T03:31:16.679Z,6.70
2019-01-18T03:34:01.863Z,7.77
2019-01-18T03:36:46.683Z,6.50
2019-01-18T03:39:31.932Z,6.80
2019-01-18T03:42:16.919Z,7.43
2019-01-18T03:45:05.194Z,6.93
2019-01-18T03:47:50.975Z,6.83
2019-01-18T03:50:36.451Z,6.40
2019-01-18T03:53:21.607Z,6.30
2019-01-18T03:56:06.921Z,6.03
2019-01-18T03:58:51.661Z,7.27
2019-01-18T04:01:37.309Z,6.83
2019-01-18T04:04:22.103Z,8.20
2019-01-18T04:07:07.428Z,7.13
2019-01-18T04:09:52.803Z,7.13
2019-01-18T04:12:37.762Z,7.23
2019-01-18T04:15:42.146Z,6.67
2019-01-18T04:18:19.017Z,7.20
2019-01-18T04:21:04.191Z,6.97
2019-01-18T04:23:49.330Z,7.03
2019-01-18T04:26:34.587Z,6.30
2019-01-18T04:29:19.791Z,6.67
2019-01-18T04:32:04.529Z,6.70
2019-01-18T04:34:49.705Z,6.60
2019-01-18T04:37:34.874Z,5.87
2019-01-18T04:40:23.867Z,6.73
2019-01-18T04:43:08.603Z,4.33
2019-01-18T04:45:53.853Z,4.60
2019-01-18T04:48:38.706Z,5.30
2019-01-18T04:51:24.214Z,5.00
2019-01-18T04:54:09.372Z,4.37
2019-01-18T04:56:54.325Z,4.40
2019-01-18T04:59:39.255Z,4.70
2019-01-18T05:02:24.344Z,4.50
2019-01-18T05:05:09.190Z,4.87
2019-01-18T05:07:54.882Z,6.50
2019-01-18T05:10:40.049Z,5.53
2019-01-18T05:13:24.991Z,4.40
2019-01-18T05:16:30.020Z,5.40
2019-01-18T05:19:15.139Z,4.27
2019-01-18T05:22:00.481Z,5.47
2019-01-18T05:24:49.575Z,5.20
2019-01-18T05:28:10.891Z,5.40
2019-01-18T05:30:53.415Z,4.80
2019-01-18T05:33:38.371Z,4.70
2019-01-18T05:36:23.535Z,4.93
2019-01-18T05:39:08.541Z,5.43
2019-01-18T05:41:54.063Z,5.27
2019-01-18T05:44:39.137Z,5.53
2019-01-18T05:47:24.251Z,5.70
2019-01-18T05:50:12.400Z,5.33
2019-01-18T05:52:58.406Z,5.00
2019-01-18T05:55:43.418Z,6.20
2019-01-18T05:58:28.680Z,5.40
2019-01-18T06:01:13.948Z,5.33
2019-01-18T06:03:58.839Z,5.83
2019-01-18T06:06:43.472Z,5.57
2019-01-18T06:09:28.331Z,5.37
2019-01-18T06:12:13.394Z,5.70
2019-01-18T06:14:58.114Z,6.13
2019-01-18T06:17:43.371Z,6.73
2019-01-18T06:20:28.046Z,6.70
2019-01-18T06:23:13.102Z,6.30
2019-01-18T06:25:58.038Z,6.80
2019-01-18T06:28:42.842Z,6.57
2019-01-18T06:31:27.963Z,6.07
2019-01-18T06:34:12.702Z,7.53
2019-01-18T06:36:57.990Z,8.70
2019-01-18T06:39:42.604Z,7.70
2019-01-18T06:42:27.941Z,7.17
2019-01-18T06:45:15.565Z,7.00
2019-01-18T06:48:00.405Z,5.63
2019-01-18T06:50:45.155Z,5.73
2019-01-18T06:53:29.887Z,6.33
2019-01-18T06:56:14.867Z,6.27
2019-01-18T06:58:59.989Z,7.07
2019-01-18T07:01:44.832Z,6.77
2019-01-18T07:04:30.149Z,6.93
2019-01-18T07:07:15.468Z,8.27
2019-01-18T07:10:00.750Z,7.70
2019-01-18T07:12:45.997Z,7.07
2019-01-18T07:15:31.858Z,8.40
2019-01-18T07:18:17.254Z,8.77
2019-01-18T07:21:02.237Z,11.83
2019-01-18T07:23:46.986Z,11.30
2019-01-18T07:26:32.179Z,9.33
2019-01-18T07:29:17.351Z,9.23
2019-01-18T07:32:02.370Z,8.13
2019-01-18T07:34:47.322Z,9.27
2019-01-18T07:37:32.889Z,9.27
2019-01-18T07:40:17.924Z,12.27
2019-01-18T07:43:03.119Z,14.53
2019-01-18T07:45:48.379Z,13.67
2019-01-18T07:48:33.577Z,12.40
2019-01-18T07:51:18.387Z,11.87
2019-01-18T07:54:23.505Z,9.20
2019-01-18T07:57:08.722Z,8.87
2019-01-18T07:59:53.756Z,9.70
2019-01-18T08:02:39.764Z,8.80
2019-01-18T08:05:26.860Z,11.67
2019-01-18T08:08:12.388Z,10.50
2019-01-18T08:10:57.488Z,12.30
2019-01-18T08:13:42.624Z,17.20
2019-01-18T08:16:28.173Z,15.33
2019-01-18T08:19:13.395Z,12.30
2019-01-18T08:21:58.622Z,13.77
2019-01-18T08:24:43.886Z,11.83
2019-01-18T08:27:29.048Z,10.63
2019-01-18T08:30:17.889Z,9.70
2019-01-18T08:33:02.970Z,11.03
2019-01-18T08:35:47.810Z,10.27
2019-01-18T08:38:32.897Z,7.03
2019-01-18T08:41:18.117Z,7.10
2019-01-18T08:44:03.545Z,7.60
2019-01-18T08:46:48.317Z,8.90
2019-01-18T08:49:33.546Z,9.10
2019-01-18T08:52:18.166Z,9.60
2019-01-18T08:55:06.340Z,10.43
2019-01-18T08:57:51.674Z,8.27
2019-01-18T09:00:37.316Z,7.17
2019-01-18T09:03:36.640Z,7.33
2019-01-18T09:06:21.496Z,8.43
2019-01-18T09:09:06.567Z,7.27
2019-01-18T09:11:51.540Z,7.43
2019-01-18T09:14:36.442Z,7.40
2019-01-18T09:17:21.889Z,6.17
2019-01-18T09:20:15.977Z,5.67
2019-01-18T09:23:01.056Z,5.73
2019-01-18T09:25:45.861Z,5.47
2019-01-18T09:28:31.187Z,4.80
2019-01-18T09:31:16.527Z,5.13
2019-01-18T09:34:01.833Z,5.00
2019-01-18T09:36:46.969Z,4.20
2019-01-18T09:39:32.757Z,4.27
2019-01-18T09:42:17.514Z,5.23
2019-01-18T09:45:06.165Z,3.53
2019-01-18T09:47:51.322Z,3.70
2019-01-18T09:50:37.108Z,4.37
2019-01-18T09:53:22.428Z,4.67
2019-01-18T09:56:07.933Z,5.30
2019-01-18T09:58:53.264Z,5.10
2019-01-18T10:01:38.797Z,5.40
2019-01-18T10:04:23.797Z,5.53
2019-01-18T10:07:08.650Z,5.17
2019-01-18T10:09:53.806Z,3.70
2019-01-18T10:12:38.530Z,5.50
2019-01-18T10:15:29.903Z,5.07
2019-01-18T10:18:15.050Z,4.80
2019-01-18T10:21:00.028Z,3.67
2019-01-18T10:23:45.053Z,3.30
2019-01-18T10:26:30.319Z,2.90
2019-01-18T10:29:15.783Z,3.87
2019-01-18T10:32:01.047Z,4.30
2019-01-18T10:34:45.908Z,5.33
2019-01-18T10:37:30.587Z,4.43
2019-01-18T10:40:16.569Z,3.73
2019-01-18T10:43:01.686Z,3.63
2019-01-18T10:45:47.027Z,3.10
2019-01-18T10:48:32.439Z,3.10
2019-01-18T10:51:17.591Z,3.90
2019-01-18T10:54:02.586Z,3.80
2019-01-18T10:56:47.710Z,4.00
2019-01-18T10:59:33.003Z,4.03
2019-01-18T11:02:19.156Z,4.87
2019-01-18T11:05:07.102Z,5.23
2019-01-18T11:07:52.179Z,6.10
2019-01-18T11:10:37.210Z,5.97
2019-01-18T11:13:22.192Z,6.20
2019-01-18T11:16:07.009Z,5.27
2019-01-18T11:18:52.180Z,4.67
2019-01-18T11:21:37.353Z,5.00
2019-01-18T11:24:22.389Z,4.23
2019-01-18T11:27:07.673Z,7.03
2019-01-18T11:29:53.423Z,5.17
2019-01-18T11:32:38.827Z,5.60
2019-01-18T11:35:24.575Z,6.03
2019-01-18T11:38:09.675Z,4.67
2019-01-18T11:40:54.457Z,5.13
2019-01-18T11:43:39.799Z,4.50
2019-01-18T11:46:25.316Z,5.70
2019-01-18T11:49:10.236Z,5.60
2019-01-18T11:51:55.341Z,5.67
2019-01-18T11:54:43.972Z,4.97
2019-01-18T11:57:27.152Z,3.90
2019-01-18T12:00:26.362Z,5.10
2019-01-18T12:03:11.952Z,4.90
2019-01-18T12:05:57.114Z,4.83
2019-01-18T12:08:42.252Z,5.57
2019-01-18T12:11:27.012Z,4.60
2019-01-18T12:14:19.062Z,4.90
2019-01-18T12:17:04.432Z,4.53
2019-01-18T12:19:49.660Z,4.43
2019-01-18T12:22:35.172Z,3.87
2019-01-18T12:25:20.047Z,5.03
2019-01-18T12:28:05.165Z,5.10
2019-01-18T12:30:50.481Z,4.60
2019-01-18T12:33:35.785Z,4.50
2019-01-18T12:36:21.277Z,5.10
2019-01-18T12:39:08.717Z,4.67
2019-01-18T12:41:53.726Z,6.20
2019-01-18T12:44:39.185Z,4.80
2019-01-18T12:47:26.182Z,4.23
2019-01-18T12:50:18.499Z,5.03
2019-01-18T12:53:03.734Z,4.33
2019-01-18T12:55:48.894Z,5.63
2019-01-18T12:58:33.979Z,5.10
2019-01-18T13:01:19.414Z,5.47
2019-01-18T13:04:08.190Z,4.60
2019-01-18T13:06:51.352Z,5.37
2019-01-18T13:09:36.538Z,4.77
2019-01-18T13:12:21.794Z,7.53
2019-01-18T13:15:22.879Z,5.10
2019-01-18T13:18:07.783Z,5.47
2019-01-18T13:20:52.896Z,5.13
2019-01-18T13:23:37.731Z,4.60
2019-01-18T13:26:23.027Z,4.33
2019-01-18T13:29:07.710Z,5.70
2019-01-18T13:31:53.053Z,4.23
2019-01-18T13:34:38.914Z,4.60
2019-01-18T13:37:24.101Z,5.40
2019-01-18T13:40:20.527Z,6.07
2019-01-18T13:43:05.664Z,8.97
2019-01-18T13:45:51.305Z,6.20
2019-01-18T13:48:36.144Z,6.20
2019-01-18T13:51:20.935Z,10.63
2019-01-18T13:54:06.235Z,7.50
2019-01-18T13:56:51.456Z,5.87
2019-01-18T13:59:36.632Z,5.97
2019-01-18T14:02:21.732Z,5.60
2019-01-18T14:05:10.795Z,6.00
2019-01-18T14:07:55.790Z,5.83
2019-01-18T14:10:41.116Z,5.73
2019-01-18T14:13:26.399Z,5.50
2019-01-18T14:16:11.568Z,5.33
2019-01-18T14:18:56.556Z,4.70
2019-01-18T14:21:41.631Z,7.33
2019-01-18T14:24:26.519Z,5.20
2019-01-18T14:27:11.499Z,7.67
2019-01-18T14:29:56.235Z,9.60
2019-01-18T14:32:42.573Z,7.30
2019-01-18T14:35:28.131Z,7.43
2019-01-18T14:38:13.551Z,6.40
2019-01-18T14:40:58.765Z,6.00
2019-01-18T14:43:43.900Z,12.80
2019-01-18T14:46:28.787Z,9.60
2019-01-18T14:49:14.470Z,9.40
2019-01-18T14:52:00.086Z,10.17
2019-01-18T14:54:45.107Z,11.27
2019-01-18T14:57:29.894Z,8.67
2019-01-18T15:00:22.654Z,9.90
2019-01-18T15:03:07.966Z,7.00
2019-01-18T15:05:53.839Z,4.73
2019-01-18T15:08:39.452Z,4.40
2019-01-18T15:11:24.500Z,5.13
2019-01-18T15:14:09.456Z,5.23
2019-01-18T15:16:54.722Z,5.47
2019-01-18T15:19:40.472Z,4.60
2019-01-18T15:22:26.053Z,4.20
2019-01-18T15:25:11.229Z,5.87
2019-01-18T15:27:56.673Z,8.70
2019-01-18T15:30:42.053Z,10.00
2019-01-18T15:33:27.292Z,11.13
2019-01-18T15:36:12.043Z,11.13
2019-01-18T15:38:57.513Z,10.50
2019-01-18T15:41:42.585Z,13.30
2019-01-18T15:44:27.747Z,9.33
2019-01-18T15:47:12.698Z,8.73
2019-01-18T15:50:00.076Z,9.07
2019-01-18T15:52:45.074Z,10.23
2019-01-18T15:55:30.439Z,12.70
2019-01-18T15:58:15.284Z,12.40
2019-01-18T16:01:00.444Z,11.47
2019-01-18T16:03:45.309Z,12.30
2019-01-18T16:06:30.331Z,12.00
2019-01-18T16:09:15.399Z,10.70
2019-01-18T16:12:00.911Z,10.03
2019-01-18T16:14:45.924Z,8.37
2019-01-18T16:17:31.676Z,11.20
2019-01-18T16:20:19.920Z,14.07
2019-01-18T16:23:05.275Z,12.80
2019-01-18T16:25:50.116Z,13.73
2019-01-18T16:28:35.366Z,16.97
2019-01-18T16:31:20.122Z,15.07
2019-01-18T16:34:05.355Z,14.30
2019-01-18T16:36:50.143Z,16.07
2019-01-18T16:39:35.460Z,15.40
2019-01-18T16:42:20.611Z,16.27
2019-01-18T16:45:12.665Z,14.47
2019-01-18T16:47:57.962Z,15.63
2019-01-18T16:50:48.343Z,11.27
2019-01-18T16:53:33.502Z,9.83
2019-01-18T16:56:19.507Z,12.10
2019-01-18T16:59:05.094Z,10.63
2019-01-18T17:01:50.951Z,13.70
2019-01-18T17:04:35.755Z,12.83
2019-01-18T17:07:20.924Z,11.33
2019-01-18T17:10:09.549Z,24.40
2019-01-18T17:12:54.636Z,14.50
2019-01-18T17:15:39.959Z,11.47
2019-01-18T17:18:25.729Z,14.17
2019-01-18T17:21:10.541Z,14.77
2019-01-18T17:23:56.014Z,13.00
2019-01-18T17:26:41.421Z,15.20
2019-01-18T17:29:26.611Z,14.80
2019-01-18T17:32:12.461Z,14.03
2019-01-18T17:34:57.535Z,15.20
2019-01-18T17:37:46.602Z,15.90
2019-01-18T17:40:35.434Z,14.30
2019-01-18T17:43:42.852Z,13.87
2019-01-18T17:46:41.315Z,16.40
2019-01-18T17:49:33.076Z,14.77
2019-01-18T17:52:34.305Z,13.37
2019-01-18T17:55:57.945Z,14.33
2019-01-18T17:58:52.762Z,27.03
2019-01-18T18:02:07.866Z,12.80
2019-01-18T18:05:11.452Z,14.50
2019-01-18T18:08:14.967Z,14.33
2019-01-18T18:11:16.190Z,14.00
2019-01-18T18:14:15.696Z,13.47
2019-01-18T18:17:13.968Z,14.33
2019-01-18T18:20:28.684Z,13.53
2019-01-18T18:23:35.570Z,16.33
2019-01-18T18:26:24.329Z,17.10
2019-01-18T18:29:29.410Z,17.77
2019-01-18T18:32:24.070Z,18.03
2019-01-18T18:35:39.697Z,19.63
2019-01-18T18:38:31.618Z,20.67
2019-01-18T18:41:36.831Z,20.17
2019-01-18T18:44:59.589Z,20.77
2019-01-18T18:48:08.254Z,19.47
2019-01-18T18:51:16.501Z,20.83
2019-01-18T18:54:40.688Z,20.70
2019-01-18T18:57:54.024Z,24.37
2019-01-18T19:00:51.774Z,25.77
2019-01-18T19:03:57.519Z,30.73
2019-01-18T19:07:05.189Z,24.87
2019-01-18T19:10:09.362Z,18.17
2019-01-18T19:13:15.019Z,21.93
2019-01-18T19:16:06.830Z,16.97
2019-01-18T19:19:07.751Z,17.07
2019-01-18T19:22:15.226Z,19.90
2019-01-18T19:25:04.092Z,16.77
2019-01-18T19:28:04.803Z,20.47
2019-01-18T19:30:56.553Z,15.93
2019-01-18T19:33:54.636Z,13.30
2019-01-18T19:36:49.476Z,16.73
2019-01-18T19:39:41.512Z,14.63
2019-01-18T19:42:53.687Z,12.53
2019-01-18T19:45:45.609Z,13.97
2019-01-18T19:48:36.859Z,15.60
2019-01-18T19:51:45.458Z,16.50
2019-01-18T19:54:43.254Z,15.23
2019-01-18T19:57:41.311Z,13.37
2019-01-18T20:00:42.530Z,14.10
2019-01-18T20:03:55.052Z,14.17
2019-01-18T20:06:56.162Z,14.53
2019-01-18T20:09:48.050Z,14.73
2019-01-18T20:12:45.581Z,16.57
2019-01-18T20:15:40.810Z,16.03
2019-01-18T20:19:08.935Z,16.73
2019-01-18T20:22:04.004Z,16.13
2019-01-18T20:25:04.695Z,15.77
2019-01-18T20:27:59.478Z,15.47
2019-01-18T20:30:51.195Z,15.47
2019-01-18T20:33:59.625Z,14.67
2019-01-18T20:36:48.391Z,37.17
2019-01-18T20:39:43.089Z,15.90
2019-01-18T20:42:34.942Z,15.17
2019-01-18T20:45:23.825Z,15.80
2019-01-18T20:48:27.889Z,14.93
2019-01-18T20:51:35.141Z,16.70
2019-01-18T20:54:50.046Z,15.70
2019-01-18T20:57:45.034Z,17.77
2019-01-18T21:00:40.099Z,16.73
2019-01-18T21:03:38.237Z,17.53
2019-01-18T21:06:39.246Z,18.10
2019-01-18T21:09:31.251Z,19.47
2019-01-18T21:12:41.121Z,19.83
2019-01-18T21:15:33.142Z,18.73
2019-01-18T21:18:28.112Z,18.83
2019-01-18T21:21:22.931Z,20.67
2019-01-18T21:24:20.887Z,26.83
2019-01-18T21:27:39.158Z,18.97
2019-01-18T21:30:40.557Z,20.50
2019-01-18T21:33:41.574Z,18.77
2019-01-18T21:36:30.503Z,19.80
2019-01-18T21:39:48.566Z,18.97
2019-01-18T21:43:01.607Z,17.97
2019-01-18T21:46:19.714Z,18.80
2019-01-18T21:49:17.901Z,19.50
2019-01-18T21:52:36.770Z,17.47
2019-01-18T21:55:42.237Z,19.93
2019-01-18T21:58:33.634Z,16.50
2019-01-18T22:01:33.900Z,18.03
2019-01-18T22:04:28.592Z,19.80
2019-01-18T22:07:23.256Z,17.70
2019-01-18T22:10:20.689Z,17.93
2019-01-18T22:13:24.270Z,22.20
2019-01-18T22:16:16.087Z,19.63
2019-01-18T22:19:04.827Z,18.60
2019-01-18T22:21:56.653Z,19.80
2019-01-18T22:24:48.323Z,22.10
2019-01-18T22:27:43.153Z,18.07
2019-01-18T22:30:55.799Z,18.53
2019-01-18T22:33:56.143Z,18.10
2019-01-18T22:37:07.563Z,19.63
2019-01-18T22:40:04.942Z,22.93
2019-01-18T22:43:05.829Z,21.37
2019-01-18T22:45:55.550Z,19.20
2019-01-18T22:49:05.778Z,20.17
2019-01-18T22:52:11.124Z,22.07
2019-01-18T22:55:08.754Z,21.90
2019-01-18T22:58:50.904Z,22.90
2019-01-18T23:01:57.594Z,20.43
2019-01-18T23:04:55.637Z,20.23
2019-01-18T23:10:45.202Z,19.57
2019-01-18T23:13:36.765Z,22.80
2019-01-18T23:16:25.747Z,22.53
2019-01-18T23:19:23.667Z,20.60
2019-01-18T23:22:38.561Z,20.27
2019-01-18T23:25:36.081Z,19.60
2019-01-18T23:28:36.941Z,18.40
2019-01-18T23:31:28.449Z,17.70
2019-01-18T23:34:17.266Z,18.30
2019-01-18T23:37:09.164Z,27.43
2019-01-18T23:40:22.815Z,20.27
2019-01-18T23:43:14.347Z,18.03
2019-01-18T23:46:06.100Z,15.37
2019-01-18T23:49:13.954Z,14.30
2019-01-18T23:52:22.334Z,15.33
2019-01-18T23:55:42.202Z,17.63
2019-01-18T23:58:31.256Z,13.97
